createdAt,value
2022-10-31T00:01:30.391Z,13.57
2022-10-31T00:03:59.838Z,16.73
2022-10-31T00:06:26.916Z,13.20
2022-10-31T00:08:56.654Z,15.27
2022-10-31T00:11:24.425Z,16.83
2022-10-31T00:13:54.020Z,19.63
2022-10-31T00:16:25.452Z,21.07
2022-10-31T00:18:54.208Z,17.03
2022-10-31T00:21:21.631Z,18.43
2022-10-31T00:23:48.906Z,16.60
2022-10-31T00:26:15.920Z,16.20
2022-10-31T00:28:42.951Z,19.53
2022-10-31T00:31:12.258Z,20.50
2022-10-31T00:33:40.242Z,19.30
2022-10-31T00:36:08.400Z,19.03
2022-10-31T00:38:35.315Z,17.73
2022-10-31T00:41:04.664Z,21.13
2022-10-31T00:43:31.402Z,20.67
2022-10-31T00:45:58.144Z,17.60
2022-10-31T00:48:24.884Z,18.80
2022-10-31T00:50:51.548Z,20.87
2022-10-31T00:53:18.284Z,23.47
2022-10-31T00:55:45.085Z,16.83
2022-10-31T00:58:11.941Z,23.87
2022-10-31T01:00:38.761Z,22.37
2022-10-31T01:03:05.588Z,17.43
2022-10-31T01:05:32.448Z,19.07
2022-10-31T01:07:59.938Z,16.57
2022-10-31T01:10:26.648Z,21.00
2022-10-31T01:12:53.417Z,18.67
2022-10-31T01:15:22.804Z,22.17
2022-10-31T01:17:50.341Z,17.93
2022-10-31T01:20:19.806Z,18.63
2022-10-31T01:22:49.110Z,18.43
2022-10-31T01:25:15.875Z,19.03
2022-10-31T01:27:42.601Z,17.77
2022-10-31T01:30:12.432Z,17.03
2022-10-31T01:32:39.079Z,19.33
2022-10-31T01:35:06.153Z,20.77
2022-10-31T01:37:33.102Z,17.17
2022-10-31T01:39:59.867Z,19.17
2022-10-31T01:42:26.585Z,16.50
2022-10-31T01:44:57.662Z,19.10
2022-10-31T01:47:36.140Z,22.17
2022-10-31T01:50:10.696Z,15.30
2022-10-31T01:52:58.662Z,20.70
2022-10-31T01:55:33.499Z,20.60
2022-10-31T01:58:05.758Z,17.57
2022-10-31T02:00:32.826Z,19.87
2022-10-31T02:03:00.669Z,21.20
2022-10-31T02:05:31.357Z,22.83
2022-10-31T02:08:12.822Z,17.83
2022-10-31T02:10:41.094Z,17.23
2022-10-31T02:13:08.904Z,20.00
2022-10-31T02:15:38.426Z,20.70
2022-10-31T02:18:07.856Z,17.17
2022-10-31T02:20:42.876Z,22.73
2022-10-31T02:23:32.033Z,17.90
2022-10-31T02:26:07.689Z,18.97
2022-10-31T02:29:00.631Z,21.00
2022-10-31T02:31:42.403Z,20.77
2022-10-31T02:34:47.981Z,22.67
2022-10-31T02:37:37.599Z,20.20
2022-10-31T02:40:25.571Z,21.90
2022-10-31T02:45:50.606Z,20.47
2022-10-31T02:48:24.224Z,20.93
2022-10-31T02:50:56.773Z,22.03
2022-10-31T02:53:23.530Z,16.53
2022-10-31T02:55:57.421Z,18.93
2022-10-31T02:58:27.651Z,17.97
2022-10-31T03:01:20.348Z,19.40
2022-10-31T03:04:06.923Z,19.33
2022-10-31T03:07:10.970Z,19.63
2022-10-31T03:09:56.335Z,18.13
2022-10-31T03:13:00.699Z,20.70
2022-10-31T03:15:36.731Z,24.57
2022-10-31T03:18:22.432Z,22.33
2022-10-31T03:21:17.660Z,21.57
2022-10-31T03:23:47.210Z,20.00
2022-10-31T03:26:15.730Z,19.13
2022-10-31T03:28:51.703Z,22.83
2022-10-31T03:31:21.300Z,20.87
2022-10-31T03:33:50.522Z,18.70
2022-10-31T03:36:18.897Z,21.43
2022-10-31T03:38:47.583Z,17.60
2022-10-31T03:41:20.157Z,18.67
2022-10-31T03:43:58.987Z,16.57
2022-10-31T03:46:25.904Z,18.93
2022-10-31T03:48:52.922Z,22.33
2022-10-31T03:51:43.653Z,25.80
2022-10-31T03:54:32.413Z,17.63
2022-10-31T03:57:09.200Z,22.53
2022-10-31T03:59:42.601Z,20.80
2022-10-31T04:02:20.890Z,21.87
2022-10-31T04:04:49.525Z,21.13
2022-10-31T04:07:19.348Z,29.70
2022-10-31T04:09:51.406Z,21.17
2022-10-31T04:12:18.619Z,21.80
2022-10-31T04:14:48.774Z,20.73
2022-10-31T04:17:18.790Z,21.47
2022-10-31T04:19:45.854Z,19.03
2022-10-31T04:22:12.687Z,19.33
2022-10-31T04:24:41.322Z,21.00
2022-10-31T04:27:08.422Z,20.40
2022-10-31T04:29:35.163Z,20.80
2022-10-31T04:32:05.016Z,20.63
2022-10-31T04:34:31.698Z,26.73
2022-10-31T04:36:58.447Z,22.77
2022-10-31T04:39:26.787Z,19.37
2022-10-31T04:41:53.665Z,23.47
2022-10-31T04:44:20.603Z,20.33
2022-10-31T04:46:47.492Z,21.90
2022-10-31T04:49:14.447Z,26.50
2022-10-31T04:51:41.237Z,22.97
2022-10-31T04:54:08.112Z,22.20
2022-10-31T04:56:34.828Z,23.00
2022-10-31T04:59:01.647Z,23.57
2022-10-31T05:01:29.026Z,23.30
2022-10-31T05:03:55.902Z,27.73
2022-10-31T05:06:24.929Z,24.90
2022-10-31T05:08:54.693Z,21.73
2022-10-31T05:11:21.441Z,25.53
2022-10-31T05:13:48.230Z,30.13
2022-10-31T05:16:17.442Z,27.97
2022-10-31T05:18:45.639Z,31.27
2022-10-31T05:21:12.419Z,27.20
2022-10-31T05:23:40.355Z,29.63
2022-10-31T05:26:09.816Z,28.83
2022-10-31T05:28:36.511Z,32.87
2022-10-31T05:31:03.916Z,29.97
2022-10-31T05:33:30.763Z,32.03
2022-10-31T05:35:57.466Z,31.33
2022-10-31T05:38:24.237Z,28.37
2022-10-31T05:40:51.035Z,31.40
2022-10-31T05:43:17.713Z,32.10
2022-10-31T05:45:44.461Z,32.63
2022-10-31T05:48:11.245Z,32.37
2022-10-31T05:50:38.185Z,30.77
2022-10-31T05:53:06.411Z,37.33
2022-10-31T05:55:33.576Z,34.53
2022-10-31T05:58:00.818Z,32.60
2022-10-31T06:00:28.950Z,32.57
2022-10-31T06:03:04.119Z,33.60
2022-10-31T06:05:32.002Z,36.30
2022-10-31T06:07:59.419Z,37.37
2022-10-31T06:10:27.418Z,31.00
2022-10-31T06:12:54.877Z,32.17
2022-10-31T06:15:24.413Z,27.57
2022-10-31T06:18:21.091Z,27.37
2022-10-31T06:20:47.765Z,31.80
2022-10-31T06:23:14.537Z,27.00
2022-10-31T06:25:41.220Z,30.13
2022-10-31T06:28:08.075Z,37.93
2022-10-31T06:30:34.819Z,32.33
2022-10-31T06:33:05.718Z,31.00
2022-10-31T06:35:35.705Z,36.13
2022-10-31T06:38:03.107Z,36.27
2022-10-31T06:40:30.131Z,35.87
2022-10-31T06:42:59.248Z,36.83
2022-10-31T06:45:26.123Z,38.13
2022-10-31T06:48:16.168Z,36.10
2022-10-31T06:50:43.913Z,35.27
2022-10-31T06:53:14.342Z,39.33
2022-10-31T06:55:41.698Z,33.33
2022-10-31T06:58:11.025Z,31.43
2022-10-31T07:00:38.150Z,27.43
2022-10-31T07:03:07.960Z,32.10
2022-10-31T07:05:34.840Z,32.97
2022-10-31T07:08:07.652Z,27.47
2022-10-31T07:10:40.134Z,31.57
2022-10-31T07:13:14.563Z,29.97
2022-10-31T07:15:43.258Z,29.30
2022-10-31T07:18:12.562Z,26.73
2022-10-31T07:20:39.296Z,30.07
2022-10-31T07:23:06.452Z,28.53
2022-10-31T07:25:33.553Z,27.57
2022-10-31T07:28:00.631Z,27.80
2022-10-31T07:30:27.795Z,30.13
2022-10-31T07:32:57.905Z,30.37
2022-10-31T07:35:26.959Z,27.43
2022-10-31T07:37:54.268Z,31.10
2022-10-31T07:40:21.513Z,30.93
2022-10-31T07:42:57.915Z,28.30
2022-10-31T07:45:24.589Z,29.13
2022-10-31T07:47:53.103Z,31.23
2022-10-31T07:50:26.349Z,32.33
2022-10-31T07:53:04.084Z,35.53
2022-10-31T07:55:31.361Z,30.40
2022-10-31T07:58:03.754Z,30.60
2022-10-31T08:00:32.079Z,30.90
2022-10-31T08:03:04.430Z,32.87
2022-10-31T08:05:31.744Z,38.30
2022-10-31T08:07:59.446Z,40.83
2022-10-31T08:10:27.570Z,48.80
2022-10-31T08:13:05.342Z,46.40
2022-10-31T08:15:33.196Z,40.20
2022-10-31T08:18:00.231Z,42.53
2022-10-31T08:20:27.297Z,42.37
2022-10-31T08:22:59.125Z,34.20
2022-10-31T08:25:27.029Z,35.93
2022-10-31T08:27:55.193Z,32.57
2022-10-31T08:30:23.771Z,33.23
2022-10-31T08:33:04.559Z,32.07
2022-10-31T08:35:32.127Z,32.13
2022-10-31T08:37:59.997Z,32.90
2022-10-31T08:40:28.910Z,33.47
2022-10-31T08:43:00.235Z,29.73
2022-10-31T08:45:27.557Z,30.80
2022-10-31T08:47:59.246Z,29.00
2022-10-31T08:50:26.842Z,29.90
2022-10-31T08:53:05.287Z,29.83
2022-10-31T08:55:35.405Z,32.03
2022-10-31T08:58:03.335Z,29.37
2022-10-31T09:00:30.517Z,29.80
2022-10-31T09:03:05.780Z,30.97
2022-10-31T09:05:33.399Z,30.10
2022-10-31T09:08:02.024Z,32.70
2022-10-31T09:10:30.915Z,30.80
2022-10-31T09:12:58.097Z,34.93
2022-10-31T09:15:26.014Z,29.13
2022-10-31T09:17:53.074Z,33.80
2022-10-31T09:20:20.578Z,32.10
2022-10-31T09:22:47.590Z,32.37
2022-10-31T09:25:18.524Z,34.10
2022-10-31T09:27:46.650Z,33.90
2022-10-31T09:30:14.762Z,29.77
2022-10-31T09:32:41.599Z,30.53
2022-10-31T09:35:08.922Z,31.53
2022-10-31T09:37:35.991Z,30.70
2022-10-31T09:40:03.025Z,23.70
2022-10-31T09:42:35.521Z,25.77
2022-10-31T09:45:11.294Z,29.10
2022-10-31T09:48:05.671Z,31.03
2022-10-31T09:50:48.556Z,26.63
2022-10-31T09:53:34.077Z,30.03
2022-10-31T09:56:01.477Z,31.80
2022-10-31T09:58:32.113Z,27.23
2022-10-31T10:01:04.224Z,30.30
2022-10-31T10:03:42.585Z,31.17
2022-10-31T10:06:19.049Z,28.07
2022-10-31T10:08:46.293Z,23.97
2022-10-31T10:11:33.104Z,27.10
2022-10-31T10:14:40.922Z,26.00
2022-10-31T10:17:42.590Z,30.57
2022-10-31T10:20:41.519Z,27.27
2022-10-31T10:23:29.822Z,33.73
2022-10-31T10:26:11.435Z,31.77
2022-10-31T10:28:42.745Z,31.70
2022-10-31T10:31:15.581Z,33.10
2022-10-31T10:33:51.839Z,30.63
2022-10-31T10:36:37.850Z,34.53
2022-10-31T10:39:21.518Z,33.40
2022-10-31T10:42:09.269Z,33.13
2022-10-31T10:45:05.713Z,34.20
2022-10-31T10:47:42.462Z,34.90
2022-10-31T10:50:26.572Z,33.93
2022-10-31T10:53:23.429Z,35.17
2022-10-31T10:56:01.456Z,32.13
2022-10-31T10:58:28.233Z,41.17
2022-10-31T11:00:56.661Z,35.03
2022-10-31T11:03:23.562Z,35.47
2022-10-31T11:06:02.756Z,37.90
2022-10-31T11:08:34.610Z,35.03
2022-10-31T11:11:26.896Z,32.60
2022-10-31T11:14:04.296Z,36.43
2022-10-31T11:16:44.083Z,34.27
2022-10-31T11:19:13.629Z,35.73
2022-10-31T11:21:40.474Z,42.47
2022-10-31T11:24:09.933Z,38.60
2022-10-31T11:26:41.770Z,38.47
2022-10-31T11:29:34.613Z,39.20
2022-10-31T11:32:01.801Z,39.30
2022-10-31T11:34:37.142Z,38.80
2022-10-31T11:37:15.921Z,36.67
2022-10-31T11:39:45.133Z,49.10
2022-10-31T11:42:13.045Z,41.77
2022-10-31T11:44:44.310Z,44.40
2022-10-31T11:47:15.249Z,41.83
2022-10-31T11:49:50.395Z,41.80
2022-10-31T11:52:26.554Z,39.70
2022-10-31T11:55:23.585Z,41.80
2022-10-31T11:57:57.950Z,37.60
2022-10-31T12:00:30.880Z,39.83
2022-10-31T12:03:16.583Z,42.97
2022-10-31T12:05:46.757Z,41.90
2022-10-31T12:08:14.844Z,43.83
2022-10-31T12:10:50.443Z,42.77
2022-10-31T12:13:38.480Z,44.20
2022-10-31T12:16:21.322Z,40.90
2022-10-31T12:19:04.308Z,41.77
2022-10-31T12:21:59.004Z,39.73
2022-10-31T12:25:05.166Z,38.73
2022-10-31T12:28:03.855Z,37.30
2022-10-31T12:30:57.129Z,36.17
2022-10-31T12:33:48.334Z,39.53
2022-10-31T12:36:52.788Z,35.83
2022-10-31T12:39:40.342Z,41.67
2022-10-31T12:42:39.421Z,42.47
2022-10-31T12:45:17.292Z,36.73
2022-10-31T12:48:07.634Z,39.00
2022-10-31T12:50:36.063Z,35.57
2022-10-31T12:55:49.488Z,39.43
2022-10-31T12:58:48.121Z,42.03
2022-10-31T13:01:23.509Z,39.70
2022-10-31T13:04:04.189Z,30.70
2022-10-31T13:06:42.042Z,34.20
2022-10-31T13:09:16.860Z,39.40
2022-10-31T13:11:48.910Z,37.87
2022-10-31T13:14:30.326Z,32.53
2022-10-31T13:16:57.942Z,37.60
2022-10-31T13:19:38.013Z,28.10
2022-10-31T13:22:23.533Z,36.60
2022-10-31T13:25:09.341Z,32.17
2022-10-31T13:28:03.717Z,36.33
2022-10-31T13:30:34.915Z,32.70
2022-10-31T13:33:25.255Z,32.43
2022-10-31T13:36:19.746Z,27.87
2022-10-31T13:39:19.234Z,31.63
2022-10-31T13:41:52.154Z,32.83
2022-10-31T13:44:27.693Z,31.67
2022-10-31T13:46:58.370Z,35.97
2022-10-31T13:49:33.979Z,28.57
2022-10-31T13:52:15.402Z,30.77
2022-10-31T13:54:47.117Z,23.77
2022-10-31T13:57:30.160Z,26.17
2022-10-31T14:00:08.370Z,23.00
2022-10-31T14:02:37.359Z,24.60
2022-10-31T14:05:08.773Z,26.80
2022-10-31T14:07:47.113Z,28.13
2022-10-31T14:10:28.316Z,27.40
2022-10-31T14:13:18.785Z,23.90
2022-10-31T14:15:56.937Z,22.77
2022-10-31T14:18:36.849Z,20.63
2022-10-31T14:21:28.550Z,22.03
2022-10-31T14:23:56.189Z,26.03
2022-10-31T14:26:34.413Z,20.63
2022-10-31T14:29:30.640Z,25.63
2022-10-31T14:32:11.895Z,25.03
2022-10-31T14:34:51.098Z,28.30
2022-10-31T14:37:44.857Z,24.87
2022-10-31T14:40:36.903Z,20.77
2022-10-31T14:43:31.975Z,24.70
2022-10-31T14:46:40.426Z,24.10
2022-10-31T14:49:33.490Z,24.57
2022-10-31T14:52:00.375Z,25.53
2022-10-31T14:54:33.977Z,19.67
2022-10-31T14:57:06.581Z,21.83
2022-10-31T14:59:39.228Z,19.23
2022-10-31T15:02:37.584Z,25.47
2022-10-31T15:05:09.977Z,19.43
2022-10-31T15:07:37.895Z,19.43
2022-10-31T15:10:08.990Z,23.40
2022-10-31T15:12:39.820Z,24.40
2022-10-31T15:15:23.003Z,21.70
2022-10-31T15:17:59.691Z,21.53
2022-10-31T15:20:30.049Z,28.77
2022-10-31T15:22:58.735Z,23.37
2022-10-31T15:25:28.269Z,27.33
2022-10-31T15:27:55.111Z,20.03
2022-10-31T15:30:27.166Z,25.27
2022-10-31T15:32:58.692Z,24.93
2022-10-31T15:35:30.859Z,21.03
2022-10-31T15:37:59.854Z,25.43
2022-10-31T15:40:30.051Z,21.63
2022-10-31T15:43:03.239Z,19.10
2022-10-31T15:45:31.300Z,24.77
2022-10-31T15:47:59.793Z,23.53
2022-10-31T15:50:41.730Z,23.70
2022-10-31T15:53:20.709Z,22.30
2022-10-31T15:55:52.889Z,24.47
2022-10-31T15:58:20.198Z,20.53
2022-10-31T16:01:05.160Z,21.33
2022-10-31T16:03:34.020Z,26.17
2022-10-31T16:06:06.148Z,27.20
2022-10-31T16:08:35.522Z,24.23
2022-10-31T16:11:08.232Z,26.73
2022-10-31T16:13:44.596Z,22.73
2022-10-31T16:19:06.969Z,26.83
2022-10-31T16:21:38.228Z,24.53
2022-10-31T16:24:27.427Z,25.70
2022-10-31T16:26:58.043Z,21.90
2022-10-31T16:29:33.847Z,26.77
2022-10-31T16:32:00.655Z,25.03
2022-10-31T16:34:27.437Z,24.73
2022-10-31T16:36:54.648Z,24.83
2022-10-31T16:39:23.927Z,23.63
2022-10-31T16:41:58.487Z,26.00
2022-10-31T16:44:27.699Z,28.63
2022-10-31T16:47:14.618Z,28.33
2022-10-31T16:49:43.062Z,28.07
2022-10-31T16:52:10.253Z,34.20
2022-10-31T16:54:36.989Z,28.57
2022-10-31T16:57:05.773Z,26.20
2022-10-31T16:59:34.340Z,25.10
2022-10-31T17:02:02.085Z,31.40
2022-10-31T17:04:29.272Z,29.27
2022-10-31T17:06:55.990Z,24.27
2022-10-31T17:09:22.754Z,30.53
2022-10-31T17:11:52.287Z,28.10
2022-10-31T17:14:19.522Z,29.87
2022-10-31T17:16:46.212Z,32.10
2022-10-31T17:19:16.489Z,33.27
2022-10-31T17:21:43.574Z,30.03
2022-10-31T17:24:15.224Z,26.20
2022-10-31T17:26:42.409Z,31.07
2022-10-31T17:29:09.140Z,28.17
2022-10-31T17:31:39.078Z,29.87
2022-10-31T17:34:07.312Z,29.17
2022-10-31T17:36:38.190Z,27.43
2022-10-31T17:39:07.499Z,25.03
2022-10-31T17:41:34.469Z,21.87
2022-10-31T17:44:07.483Z,24.97
2022-10-31T17:46:34.234Z,22.33
2022-10-31T17:49:01.780Z,20.40
2022-10-31T17:51:28.571Z,20.93
2022-10-31T17:53:55.330Z,21.00
2022-10-31T17:56:22.063Z,20.03
2022-10-31T17:58:48.814Z,17.30
2022-10-31T18:01:17.607Z,22.80
2022-10-31T18:03:44.835Z,19.30
2022-10-31T18:06:14.467Z,17.20
2022-10-31T18:08:41.467Z,23.10
2022-10-31T18:11:11.277Z,16.23
2022-10-31T18:13:38.984Z,18.07
2022-10-31T18:16:16.889Z,16.20
2022-10-31T18:18:43.585Z,21.07
2022-10-31T18:21:13.565Z,19.03
2022-10-31T18:23:40.266Z,17.10
2022-10-31T18:26:07.063Z,16.90
2022-10-31T18:28:33.732Z,16.50
2022-10-31T18:31:00.635Z,27.20
2022-10-31T18:33:27.748Z,16.80
2022-10-31T18:35:54.454Z,18.80
2022-10-31T18:38:24.587Z,16.97
2022-10-31T18:40:51.866Z,15.30
2022-10-31T18:43:18.628Z,23.00
2022-10-31T18:45:48.605Z,15.30
2022-10-31T18:48:17.353Z,17.93
2022-10-31T18:50:44.770Z,18.73
2022-10-31T18:53:11.603Z,15.83
2022-10-31T18:55:50.200Z,15.17
2022-10-31T18:58:17.800Z,18.50
2022-10-31T19:00:45.840Z,13.23
2022-10-31T19:03:13.325Z,14.80
2022-10-31T19:05:40.161Z,16.40
2022-10-31T19:08:07.258Z,13.30
2022-10-31T19:10:38.637Z,16.30
2022-10-31T19:13:05.807Z,15.83
2022-10-31T19:15:35.102Z,15.97
2022-10-31T19:18:04.710Z,14.27
2022-10-31T19:20:31.911Z,14.17
2022-10-31T19:22:59.087Z,21.63
2022-10-31T19:25:26.039Z,16.50
2022-10-31T19:27:52.918Z,17.30
2022-10-31T19:30:24.102Z,15.50
2022-10-31T19:32:55.847Z,15.03
2022-10-31T19:35:22.744Z,19.30
2022-10-31T19:37:49.564Z,13.87
2022-10-31T19:40:16.440Z,15.80
2022-10-31T19:42:43.447Z,17.53
2022-10-31T19:45:11.027Z,19.43
2022-10-31T19:47:37.983Z,14.20
2022-10-31T19:50:05.099Z,15.80
2022-10-31T19:52:35.336Z,14.70
2022-10-31T19:55:02.592Z,13.77
2022-10-31T19:57:56.268Z,16.13
2022-10-31T20:00:19.053Z,14.00
2022-10-31T20:02:45.744Z,12.80
2022-10-31T20:05:12.514Z,17.93
2022-10-31T20:07:39.267Z,18.97
2022-10-31T20:10:07.386Z,17.07
2022-10-31T20:12:34.258Z,14.00
2022-10-31T20:15:01.011Z,13.10
2022-10-31T20:17:27.777Z,13.07
2022-10-31T20:19:58.031Z,11.97
2022-10-31T20:22:24.933Z,12.43
2022-10-31T20:24:51.634Z,12.43
2022-10-31T20:27:18.322Z,14.87
2022-10-31T20:29:45.124Z,20.07
2022-10-31T20:32:11.933Z,17.67
2022-10-31T20:34:39.563Z,12.53
2022-10-31T20:37:06.356Z,18.13
2022-10-31T20:39:33.230Z,15.83
2022-10-31T20:41:59.917Z,19.20
2022-10-31T20:44:26.891Z,16.07
2022-10-31T20:46:53.639Z,12.37
2022-10-31T20:49:20.405Z,12.30
2022-10-31T20:51:47.173Z,11.87
2022-10-31T20:54:14.501Z,10.30
2022-10-31T20:56:41.226Z,14.53
2022-10-31T20:59:08.261Z,12.27
2022-10-31T21:01:36.662Z,10.87
2022-10-31T21:04:04.771Z,17.00
2022-10-31T21:06:31.782Z,8.83
2022-10-31T21:08:58.582Z,12.83
2022-10-31T21:11:27.335Z,12.20
2022-10-31T21:13:54.487Z,15.40
2022-10-31T21:16:35.820Z,14.53
2022-10-31T21:19:04.204Z,10.50
2022-10-31T21:21:33.938Z,11.93
2022-10-31T21:24:03.710Z,12.50
2022-10-31T21:26:33.786Z,13.70
2022-10-31T21:29:01.713Z,9.70
2022-10-31T21:31:28.427Z,15.03
2022-10-31T21:33:55.793Z,11.93
2022-10-31T21:36:22.701Z,12.60
2022-10-31T21:38:51.331Z,11.53
2022-10-31T21:41:21.779Z,12.63
2022-10-31T21:43:50.457Z,11.70
2022-10-31T21:46:20.115Z,14.17
2022-10-31T21:48:47.295Z,13.60
2022-10-31T21:51:26.314Z,13.33
2022-10-31T21:54:12.890Z,11.47
2022-10-31T21:56:40.386Z,11.07
2022-10-31T21:59:07.398Z,12.40
2022-10-31T22:01:35.392Z,10.53
2022-10-31T22:04:08.452Z,11.77
2022-10-31T22:06:36.265Z,11.40
2022-10-31T22:09:06.487Z,14.27
2022-10-31T22:11:34.316Z,12.80
2022-10-31T22:14:01.518Z,15.43
2022-10-31T22:16:30.359Z,10.63
2022-10-31T22:18:59.400Z,9.03
2022-10-31T22:21:27.861Z,11.00
2022-10-31T22:23:56.671Z,10.33
2022-10-31T22:26:24.241Z,10.87
2022-10-31T22:28:53.516Z,12.10
2022-10-31T22:31:22.667Z,9.57
2022-10-31T22:33:50.089Z,9.30
2022-10-31T22:36:19.772Z,13.73
2022-10-31T22:38:47.631Z,12.83
2022-10-31T22:41:17.550Z,10.67
2022-10-31T22:43:45.121Z,11.20
2022-10-31T22:46:14.645Z,11.57
2022-10-31T22:48:44.115Z,11.70
2022-10-31T22:51:16.857Z,11.17
2022-10-31T22:53:47.524Z,17.47
2022-10-31T22:56:20.096Z,13.07
2022-10-31T22:58:49.239Z,11.87
2022-10-31T23:01:25.578Z,14.13
2022-10-31T23:03:52.626Z,13.33
2022-10-31T23:06:21.915Z,12.73
2022-10-31T23:08:49.782Z,11.57
2022-10-31T23:11:26.044Z,13.53
2022-10-31T23:14:14.251Z,10.80
2022-10-31T23:16:52.877Z,9.60
2022-10-31T23:19:22.627Z,11.93
2022-10-31T23:22:02.314Z,12.37
2022-10-31T23:24:46.300Z,10.10
2022-10-31T23:27:16.918Z,10.27
2022-10-31T23:29:49.514Z,11.23
2022-10-31T23:32:33.704Z,10.80
2022-10-31T23:35:10.067Z,10.60
2022-10-31T23:37:38.613Z,13.83
2022-10-31T23:40:08.659Z,14.00
2022-10-31T23:42:35.571Z,12.30
2022-10-31T23:45:02.457Z,12.90
2022-10-31T23:47:29.283Z,13.67
2022-10-31T23:49:56.067Z,11.10
2022-10-31T23:52:22.936Z,11.40
2022-10-31T23:54:49.599Z,9.33
2022-10-31T23:57:17.200Z,14.83
2022-10-31T23:59:44.306Z,13.20
